Versailles, Kentucky
Current Conditions -  °F | °C
As of 5:54 PM on Wednesday 26 Nov 2014 (Local Time) from KLEX Reporting Station
Clear Clear  
Wind Chill: 39°   Ceiling: Unl
Heat Index: 39°   Visibility: 10mi
Dew Point: 28°   Wind: 3mph
Humidity: 65%   Direction: 190°S
Pressure: 30.01"   Gusts: NA
Location:  38.05°N, 84.73°W
Report Text: KLEX 262254Z AUTO 19003KT 10SM CLR 04/M02 A3001 RMK AO2 SLP169 T00391022
Loading
Personal Weather Stations






























Interactive Weather Map New forecast layout! Learn more

10-Day Weather Forecast

Advertisements
Track Severe Weather on mobile